createdAt,value
2023-04-18T00:01:54.077Z,72.32
2023-04-18T00:04:57.170Z,72.36
2023-04-18T00:07:59.590Z,72.63
2023-04-18T00:11:02.465Z,72.75
2023-04-18T00:14:06.314Z,72.68
2023-04-18T00:17:09.541Z,73.02
2023-04-18T00:20:12.746Z,72.92
2023-04-18T00:23:16.369Z,72.79
2023-04-18T00:26:18.730Z,72.87
2023-04-18T00:29:23.269Z,73.32
2023-04-18T00:32:28.478Z,73.66
2023-04-18T00:35:32.126Z,73.82
2023-04-18T00:38:35.465Z,73.58
2023-04-18T00:41:38.604Z,73.80
2023-04-18T00:44:41.120Z,74.00
2023-04-18T00:47:45.845Z,74.08
2023-04-18T00:50:48.237Z,73.93
2023-04-18T00:53:51.457Z,73.84
2023-04-18T00:56:53.835Z,73.70
2023-04-18T00:59:56.785Z,73.81
2023-04-18T01:02:59.444Z,73.77
2023-04-18T01:06:02.631Z,74.24
2023-04-18T01:09:07.876Z,73.67
2023-04-18T01:12:10.909Z,73.78
2023-04-18T01:15:13.257Z,73.93
2023-04-18T01:18:16.919Z,74.08
2023-04-18T01:21:20.283Z,73.95
2023-04-18T01:24:25.868Z,74.04
2023-04-18T01:27:28.166Z,73.91
2023-04-18T01:30:31.126Z,73.73
2023-04-18T01:33:34.010Z,73.00
2023-04-18T01:36:37.938Z,73.04
2023-04-18T01:39:40.276Z,72.99
2023-04-18T01:42:43.140Z,72.90
2023-04-18T01:45:46.310Z,73.27
2023-04-18T01:48:49.213Z,73.31
2023-04-18T01:51:51.750Z,72.90
2023-04-18T01:54:57.112Z,72.61
2023-04-18T01:57:59.432Z,72.58
2023-04-18T02:01:02.709Z,72.79
2023-04-18T02:04:05.373Z,71.97
2023-04-18T02:07:08.172Z,71.94
2023-04-18T02:10:11.327Z,72.00
2023-04-18T02:13:15.564Z,72.25
2023-04-18T02:16:19.838Z,71.73
2023-04-18T02:19:24.287Z,71.90
2023-04-18T02:22:26.641Z,72.11
2023-04-18T02:25:29.828Z,72.17
2023-04-18T02:28:32.533Z,72.31
2023-04-18T02:31:39.955Z,72.24
2023-04-18T02:34:42.249Z,72.58
2023-04-18T02:37:45.184Z,72.43
2023-04-18T02:40:48.182Z,72.59
2023-04-18T02:43:51.062Z,72.75
2023-04-18T02:46:53.644Z,72.46
2023-04-18T02:49:56.822Z,72.13
2023-04-18T02:53:01.714Z,72.19
2023-04-18T02:56:05.404Z,72.23
2023-04-18T02:59:08.646Z,72.77
2023-04-18T03:02:12.496Z,72.77
2023-04-18T03:05:17.080Z,72.91
2023-04-18T03:08:20.158Z,73.20
2023-04-18T03:11:22.529Z,73.37
2023-04-18T03:14:25.533Z,73.55
2023-04-18T03:17:28.668Z,73.79
2023-04-18T03:20:31.547Z,73.56
2023-04-18T03:23:33.924Z,72.50
2023-04-18T03:26:38.054Z,72.91
2023-04-18T03:29:41.171Z,73.29
2023-04-18T03:32:44.470Z,73.57
2023-04-18T03:35:46.987Z,73.63
2023-04-18T03:38:50.096Z,73.46
2023-04-18T03:41:53.043Z,73.55
2023-04-18T03:44:56.436Z,73.71
2023-04-18T03:47:59.188Z,74.30
2023-04-18T03:51:02.701Z,74.56
2023-04-18T03:54:06.392Z,75.04
2023-04-18T03:57:09.346Z,74.16
2023-04-18T04:00:12.603Z,74.14
2023-04-18T04:03:18.389Z,74.12
2023-04-18T04:06:21.456Z,74.44
2023-04-18T04:09:24.105Z,74.46
2023-04-18T04:12:27.202Z,74.15
2023-04-18T04:15:29.962Z,74.47
2023-04-18T04:18:33.244Z,74.85
2023-04-18T04:21:36.067Z,75.06
2023-04-18T04:24:39.590Z,75.70
2023-04-18T04:27:42.789Z,75.98
2023-04-18T04:30:46.471Z,76.25
2023-04-18T04:33:49.065Z,76.46
2023-04-18T04:36:51.852Z,76.79
2023-04-18T04:39:56.499Z,76.86
2023-04-18T04:43:01.455Z,76.52
2023-04-18T04:46:07.487Z,76.84
2023-04-18T04:49:10.582Z,77.40
2023-04-18T04:52:13.241Z,78.43
2023-04-18T04:55:15.909Z,78.67
2023-04-18T04:58:19.126Z,79.04
2023-04-18T05:01:24.610Z,79.33
2023-04-18T05:04:27.378Z,79.26
2023-04-18T05:07:30.812Z,79.35
2023-04-18T05:10:34.767Z,78.95
2023-04-18T05:13:37.317Z,78.75
2023-04-18T05:16:39.939Z,78.73
2023-04-18T05:19:44.204Z,78.13
2023-04-18T05:22:46.885Z,78.80
2023-04-18T05:25:49.959Z,78.26
2023-04-18T05:28:52.545Z,77.93
2023-04-18T05:31:55.219Z,77.97
2023-04-18T05:34:57.840Z,77.80
2023-04-18T05:38:00.691Z,77.42
2023-04-18T05:41:03.341Z,76.46
2023-04-18T05:44:06.075Z,75.92
2023-04-18T05:47:08.704Z,75.31
2023-04-18T05:50:11.379Z,75.36
2023-04-18T05:53:13.971Z,75.15
2023-04-18T05:56:16.567Z,75.42
2023-04-18T05:59:19.205Z,74.04
2023-04-18T06:02:22.237Z,72.89
2023-04-18T06:05:25.591Z,72.49
2023-04-18T06:08:28.176Z,71.96
2023-04-18T06:11:33.621Z,71.43
2023-04-18T06:14:35.894Z,71.64
2023-04-18T06:17:38.866Z,70.51
2023-04-18T06:20:42.191Z,70.33
2023-04-18T06:23:45.052Z,69.74
2023-04-18T06:26:47.363Z,69.27
2023-04-18T06:29:50.261Z,68.92
2023-04-18T06:32:52.994Z,67.41
2023-04-18T06:35:56.072Z,66.67
2023-04-18T06:38:58.405Z,67.29
2023-04-18T06:42:02.505Z,67.17
2023-04-18T06:45:06.468Z,66.60
2023-04-18T06:48:10.870Z,66.39
2023-04-18T06:51:14.146Z,65.24
2023-04-18T06:54:17.014Z,63.20
2023-04-18T06:57:19.359Z,62.71
2023-04-18T07:00:22.369Z,62.42
2023-04-18T07:03:24.863Z,62.13
2023-04-18T07:06:27.895Z,62.07
2023-04-18T07:09:30.190Z,61.35
2023-04-18T07:12:33.853Z,61.69
2023-04-18T07:15:36.293Z,62.98
2023-04-18T07:18:39.227Z,60.63
2023-04-18T07:21:44.934Z,60.03
2023-04-18T07:24:47.907Z,59.15
2023-04-18T07:27:50.230Z,58.37
2023-04-18T07:30:53.143Z,58.47
2023-04-18T07:33:55.670Z,58.70
2023-04-18T07:36:58.800Z,58.34
2023-04-18T07:40:01.126Z,58.67
2023-04-18T07:43:04.040Z,57.67
2023-04-18T07:46:06.555Z,57.00
2023-04-18T07:49:09.433Z,56.98
2023-04-18T07:52:12.680Z,55.82
2023-04-18T07:55:15.870Z,55.66
2023-04-18T07:58:18.163Z,58.28
2023-04-18T08:01:24.209Z,54.78
2023-04-18T08:04:29.749Z,55.25
2023-04-18T08:07:32.788Z,54.21
2023-04-18T08:10:35.884Z,54.21
2023-04-18T08:13:38.526Z,54.13
2023-04-18T08:16:41.286Z,55.55
2023-04-18T08:19:45.595Z,52.87
2023-04-18T08:23:05.092Z,52.03
2023-04-18T08:26:09.309Z,52.15
2023-04-18T08:29:12.478Z,48.68
2023-04-18T08:32:15.348Z,50.73
2023-04-18T08:35:17.922Z,48.73
2023-04-18T08:38:20.674Z,50.98
2023-04-18T08:41:27.042Z,47.01
2023-04-18T08:44:29.907Z,46.47
2023-04-18T08:47:35.203Z,47.12
2023-04-18T08:50:37.834Z,48.04
2023-04-18T08:53:42.167Z,46.72
2023-04-18T08:56:45.036Z,42.32
2023-04-18T08:59:50.364Z,39.46
2023-04-18T09:02:59.538Z,36.62
2023-04-18T09:06:16.154Z,34.76
2023-04-18T09:09:18.820Z,36.91
2023-04-18T09:12:22.847Z,33.12
2023-04-18T09:15:29.822Z,38.23
2023-04-18T09:18:32.544Z,35.48
2023-04-18T09:21:36.262Z,36.99
2023-04-18T09:24:40.133Z,38.21
2023-04-18T09:27:42.672Z,38.28
2023-04-18T09:30:46.672Z,35.24
2023-04-18T09:33:54.525Z,36.21
2023-04-18T09:37:10.663Z,35.53
2023-04-18T09:40:16.988Z,36.04
2023-04-18T09:43:20.837Z,36.45
2023-04-18T09:46:23.650Z,37.50
2023-04-18T09:49:26.974Z,38.80
2023-04-18T09:52:32.804Z,35.70
2023-04-18T09:55:35.704Z,34.69
2023-04-18T09:58:41.073Z,36.85
2023-04-18T10:01:47.413Z,33.92
2023-04-18T10:04:53.453Z,34.59
2023-04-18T10:07:56.292Z,37.98
2023-04-18T10:10:59.422Z,36.40
2023-04-18T10:14:03.350Z,36.64
2023-04-18T10:17:07.409Z,38.74
2023-04-18T10:20:15.455Z,36.30
2023-04-18T10:23:37.916Z,38.00
2023-04-18T10:26:46.990Z,35.31
2023-04-18T10:29:51.481Z,36.20
2023-04-18T10:32:55.543Z,35.22
2023-04-18T10:35:59.951Z,35.44
2023-04-18T10:39:21.616Z,34.93
2023-04-18T10:42:54.009Z,35.53
2023-04-18T10:46:23.859Z,36.62
2023-04-18T10:49:36.167Z,36.46
2023-04-18T10:52:38.555Z,39.48
2023-04-18T10:55:44.720Z,36.71
2023-04-18T10:58:51.293Z,36.38
2023-04-18T11:01:59.882Z,36.15
2023-04-18T11:05:04.840Z,40.40
2023-04-18T11:08:21.777Z,36.73
2023-04-18T11:11:24.669Z,35.99
2023-04-18T11:14:39.642Z,35.37
2023-04-18T11:17:41.998Z,36.15
2023-04-18T11:20:49.726Z,35.63
2023-04-18T11:23:52.104Z,38.08
2023-04-18T11:26:56.077Z,36.88
2023-04-18T11:29:58.999Z,37.77
2023-04-18T11:33:05.082Z,38.94
2023-04-18T11:36:07.681Z,37.58
2023-04-18T11:39:10.690Z,38.70
2023-04-18T11:42:13.074Z,37.00
2023-04-18T11:45:16.013Z,37.05
2023-04-18T11:48:19.020Z,38.51
2023-04-18T11:51:31.693Z,39.39
2023-04-18T11:54:37.663Z,37.57
2023-04-18T11:57:41.104Z,38.03
2023-04-18T12:00:43.512Z,38.22
2023-04-18T12:04:02.880Z,39.42
2023-04-18T12:07:05.569Z,39.19
2023-04-18T12:10:09.698Z,44.42
2023-04-18T12:13:12.342Z,39.72
2023-04-18T12:16:15.280Z,41.13
2023-04-18T12:19:17.844Z,38.38
2023-04-18T12:22:23.914Z,38.40
2023-04-18T12:25:27.732Z,38.47
2023-04-18T12:28:30.993Z,37.69
2023-04-18T12:31:33.452Z,40.30
2023-04-18T12:34:36.359Z,36.87
2023-04-18T12:37:38.657Z,37.86
2023-04-18T12:40:41.536Z,38.42
2023-04-18T12:43:43.828Z,37.39
2023-04-18T12:46:46.717Z,39.69
2023-04-18T12:49:49.047Z,38.63
2023-04-18T12:52:53.333Z,35.43
2023-04-18T12:55:55.631Z,37.91
2023-04-18T12:58:58.504Z,35.47
2023-04-18T13:02:00.893Z,35.61
2023-04-18T13:05:04.617Z,36.25
2023-04-18T13:08:16.321Z,34.85
2023-04-18T13:11:22.463Z,36.61
2023-04-18T13:14:24.901Z,36.77
2023-04-18T13:17:27.812Z,32.60
2023-04-18T13:20:30.657Z,31.05
2023-04-18T13:23:33.559Z,30.28
2023-04-18T13:26:37.618Z,31.28
2023-04-18T13:29:41.758Z,30.11
2023-04-18T13:32:44.159Z,27.88
2023-04-18T13:35:47.293Z,28.02
2023-04-18T13:38:50.386Z,30.34
2023-04-18T13:41:53.327Z,29.97
2023-04-18T13:44:55.609Z,27.43
2023-04-18T13:47:58.645Z,28.23
2023-04-18T13:51:02.449Z,27.74
2023-04-18T13:54:05.384Z,30.80
2023-04-18T13:57:11.664Z,29.13
2023-04-18T14:00:15.209Z,30.64
2023-04-18T14:03:17.904Z,27.14
2023-04-18T14:06:21.072Z,26.62
2023-04-18T14:09:23.919Z,26.15
2023-04-18T14:12:26.904Z,27.39
2023-04-18T14:15:30.107Z,25.45
2023-04-18T14:18:32.862Z,28.45
2023-04-18T14:21:35.968Z,28.71
2023-04-18T14:24:38.609Z,28.22
2023-04-18T14:27:41.336Z,31.86
2023-04-18T14:30:44.273Z,26.97
2023-04-18T14:33:46.873Z,29.45
2023-04-18T14:36:49.440Z,29.21
2023-04-18T14:39:52.018Z,27.66
2023-04-18T14:42:54.615Z,28.87
2023-04-18T14:45:58.993Z,30.23
2023-04-18T14:49:02.357Z,28.63
2023-04-18T14:52:05.081Z,29.13
2023-04-18T14:55:08.490Z,28.15
2023-04-18T14:58:11.133Z,28.12
2023-04-18T15:01:13.733Z,28.13
2023-04-18T15:04:16.519Z,30.48
2023-04-18T15:07:19.457Z,28.75
2023-04-18T15:10:22.599Z,28.17
2023-04-18T15:13:25.569Z,27.59
2023-04-18T15:16:28.343Z,31.83
2023-04-18T15:19:31.326Z,29.65
2023-04-18T15:22:34.356Z,30.42
2023-04-18T15:25:36.986Z,29.46
2023-04-18T15:28:39.680Z,30.71
2023-04-18T15:31:42.276Z,30.50
2023-04-18T15:34:44.953Z,29.89
2023-04-18T15:37:47.589Z,29.97
2023-04-18T15:40:50.233Z,29.89
2023-04-18T15:43:53.006Z,32.60
2023-04-18T15:46:55.723Z,31.00
2023-04-18T15:49:58.422Z,33.61
2023-04-18T15:53:01.946Z,34.21
2023-04-18T15:56:06.006Z,32.87
2023-04-18T15:59:10.967Z,32.19
2023-04-18T16:02:13.593Z,32.08
2023-04-18T16:05:16.301Z,32.17
2023-04-18T16:08:18.878Z,32.63
2023-04-18T16:11:21.882Z,33.51
2023-04-18T16:14:24.898Z,32.25
2023-04-18T16:17:27.542Z,34.35
2023-04-18T16:20:30.176Z,33.04
2023-04-18T16:23:32.890Z,33.04
2023-04-18T16:26:36.221Z,33.07
2023-04-18T16:29:44.181Z,33.69
2023-04-18T16:32:46.953Z,36.18
2023-04-18T16:35:49.587Z,33.11
2023-04-18T16:38:54.499Z,33.85
2023-04-18T16:41:57.724Z,35.43
2023-04-18T16:45:03.878Z,34.88
2023-04-18T16:48:06.573Z,37.12
2023-04-18T16:51:09.162Z,38.50
2023-04-18T16:54:14.884Z,39.18
2023-04-18T16:57:17.901Z,37.88
2023-04-18T17:00:21.155Z,36.03
2023-04-18T17:03:25.925Z,34.49
2023-04-18T17:06:30.883Z,35.71
2023-04-18T17:09:34.233Z,35.76
2023-04-18T17:12:37.603Z,37.99
2023-04-18T17:15:40.526Z,36.38
2023-04-18T17:18:43.165Z,37.35
2023-04-18T17:21:46.377Z,38.88
2023-04-18T17:24:49.038Z,39.11
2023-04-18T17:27:51.630Z,39.83
2023-04-18T17:30:54.303Z,39.56
2023-04-18T17:33:57.911Z,37.90
2023-04-18T17:37:00.467Z,38.72
2023-04-18T17:40:06.686Z,40.38
2023-04-18T17:43:10.720Z,41.15
2023-04-18T17:46:13.840Z,42.49
2023-04-18T17:49:16.829Z,41.06
2023-04-18T17:52:19.456Z,41.76
2023-04-18T17:55:22.078Z,42.56
2023-04-18T17:58:28.041Z,43.32
2023-04-18T18:01:31.710Z,43.47
2023-04-18T18:04:34.884Z,43.01
2023-04-18T18:07:38.351Z,43.35
2023-04-18T18:10:42.656Z,43.80
2023-04-18T18:13:46.700Z,43.38
2023-04-18T18:16:49.793Z,43.72
2023-04-18T18:19:52.097Z,43.92
2023-04-18T18:22:55.688Z,44.07
2023-04-18T18:25:58.103Z,44.81
2023-04-18T18:29:01.302Z,45.05
2023-04-18T18:32:03.642Z,44.21
2023-04-18T18:35:07.376Z,44.88
2023-04-18T18:38:10.112Z,44.42
2023-04-18T18:41:13.038Z,44.30
2023-04-18T18:44:15.386Z,42.02
2023-04-18T18:47:18.504Z,42.21
2023-04-18T18:50:20.941Z,43.89
2023-04-18T18:53:24.038Z,45.50
2023-04-18T18:56:26.369Z,45.13
2023-04-18T18:59:29.750Z,45.67
2023-04-18T19:02:32.173Z,45.35
2023-04-18T19:05:35.801Z,45.54
2023-04-18T19:08:38.131Z,45.34
2023-04-18T19:11:40.981Z,44.14
2023-04-18T19:14:43.252Z,45.76
2023-04-18T19:17:46.163Z,45.17
2023-04-18T19:20:49.468Z,43.91
2023-04-18T19:23:52.473Z,43.21
2023-04-18T19:26:54.828Z,42.61
2023-04-18T19:29:57.734Z,41.54
2023-04-18T19:33:00.064Z,40.62
2023-04-18T19:36:03.281Z,42.97
2023-04-18T19:39:05.742Z,41.34
2023-04-18T19:42:08.816Z,43.18
2023-04-18T19:45:12.056Z,42.57
2023-04-18T19:48:14.962Z,43.90
2023-04-18T19:51:17.356Z,42.96
2023-04-18T19:54:21.857Z,41.08
2023-04-18T19:57:25.914Z,41.17
2023-04-18T20:00:29.390Z,41.72
2023-04-18T20:03:35.061Z,41.83
2023-04-18T20:06:38.146Z,41.80
2023-04-18T20:09:41.180Z,40.69
2023-04-18T20:12:43.810Z,41.42
2023-04-18T20:15:46.479Z,40.74
2023-04-18T20:18:51.911Z,42.19
2023-04-18T20:21:55.518Z,41.36
2023-04-18T20:24:58.185Z,41.19
2023-04-18T20:28:00.974Z,41.15
2023-04-18T20:31:03.771Z,40.59
2023-04-18T20:34:06.691Z,40.96
2023-04-18T20:37:10.113Z,40.93
2023-04-18T20:40:12.867Z,42.70
2023-04-18T20:43:17.494Z,41.80
2023-04-18T20:46:20.273Z,44.25
2023-04-18T20:49:22.911Z,42.89
2023-04-18T20:52:25.759Z,44.87
2023-04-18T20:55:28.373Z,45.47
2023-04-18T20:58:31.081Z,43.99
2023-04-18T21:01:35.561Z,45.13
2023-04-18T21:04:39.976Z,43.13
2023-04-18T21:07:47.111Z,43.95
2023-04-18T21:10:51.805Z,41.55
2023-04-18T21:13:54.428Z,40.67
2023-04-18T21:16:57.591Z,40.64
2023-04-18T21:20:00.322Z,41.36
2023-04-18T21:23:03.061Z,40.86
2023-04-18T21:26:05.787Z,41.12
2023-04-18T21:29:08.370Z,41.24
2023-04-18T21:32:11.039Z,41.21
2023-04-18T21:35:13.655Z,41.45
2023-04-18T21:38:16.281Z,41.79
2023-04-18T21:41:19.318Z,42.25
2023-04-18T21:44:22.011Z,42.11
2023-04-18T21:47:25.932Z,42.44
2023-04-18T21:50:28.661Z,42.46
2023-04-18T21:53:31.298Z,42.55
2023-04-18T21:56:33.958Z,42.09
2023-04-18T21:59:36.607Z,42.55
2023-04-18T22:02:39.352Z,43.51
2023-04-18T22:05:43.051Z,42.87
2023-04-18T22:08:45.864Z,42.97
2023-04-18T22:11:48.817Z,42.95
2023-04-18T22:14:52.885Z,42.58
2023-04-18T22:17:55.834Z,43.30
2023-04-18T22:20:58.721Z,43.57
2023-04-18T22:24:01.458Z,43.60
2023-04-18T22:27:04.286Z,43.34
2023-04-18T22:30:07.206Z,43.45
2023-04-18T22:33:09.787Z,43.68
2023-04-18T22:36:12.407Z,43.95
2023-04-18T22:39:14.971Z,45.58
2023-04-18T22:42:17.719Z,45.11
2023-04-18T22:45:20.417Z,45.39
2023-04-18T22:48:23.725Z,46.26
2023-04-18T22:51:28.566Z,46.55
2023-04-18T22:54:31.221Z,45.69
2023-04-18T22:57:33.874Z,46.45
2023-04-18T23:00:36.585Z,45.13
2023-04-18T23:03:39.279Z,45.66
2023-04-18T23:06:41.897Z,46.21
2023-04-18T23:09:44.878Z,45.53
2023-04-18T23:12:47.805Z,45.63
2023-04-18T23:15:50.378Z,46.17
2023-04-18T23:18:52.946Z,46.12
2023-04-18T23:21:55.567Z,46.47
2023-04-18T23:24:58.206Z,46.36
2023-04-18T23:28:00.766Z,46.15
2023-04-18T23:31:03.379Z,45.65
2023-04-18T23:34:06.089Z,44.67
2023-04-18T23:37:09.719Z,45.44
2023-04-18T23:40:12.296Z,44.90
2023-04-18T23:43:15.098Z,45.29
2023-04-18T23:46:17.714Z,44.37
2023-04-18T23:49:20.497Z,44.03
2023-04-18T23:52:23.202Z,45.10
2023-04-18T23:55:25.932Z,44.25
2023-04-18T23:58:28.525Z,43.80
